sensor_id;sensor_type;location;lat;lon;timestamp;P1;durP1;ratioP1;P2;durP2;ratioP2
10260;SDS011;5175;42.606;23.388;2023-04-03T00:01:21;3.63;;;2.90;;
10260;SDS011;5175;42.606;23.388;2023-04-03T00:03:48;4.27;;;3.00;;
10260;SDS011;5175;42.606;23.388;2023-04-03T00:06:16;3.70;;;2.97;;
10260;SDS011;5175;42.606;23.388;2023-04-03T00:08:43;3.40;;;2.67;;
10260;SDS011;5175;42.606;23.388;2023-04-03T00:11:10;3.40;;;2.80;;
10260;SDS011;5175;42.606;23.388;2023-04-03T00:13:37;3.60;;;2.80;;
10260;SDS011;5175;42.606;23.388;2023-04-03T00:16:05;3.93;;;3.50;;
10260;SDS011;5175;42.606;23.388;2023-04-03T00:18:32;4.10;;;2.90;;
10260;SDS011;5175;42.606;23.388;2023-04-03T00:20:59;4.30;;;3.73;;
10260;SDS011;5175;42.606;23.388;2023-04-03T00:23:27;8.13;;;7.33;;
10260;SDS011;5175;42.606;23.388;2023-04-03T00:25:54;3.80;;;3.30;;
10260;SDS011;5175;42.606;23.388;2023-04-03T00:28:20;5.93;;;3.63;;
10260;SDS011;5175;42.606;23.388;2023-04-03T00:30:48;3.13;;;2.80;;
10260;SDS011;5175;42.606;23.388;2023-04-03T00:33:15;4.27;;;2.97;;
10260;SDS011;5175;42.606;23.388;2023-04-03T00:35:42;3.80;;;3.40;;
10260;SDS011;5175;42.606;23.388;2023-04-03T00:38:09;3.57;;;2.47;;
10260;SDS011;5175;42.606;23.388;2023-04-03T00:40:38;2.67;;;2.43;;
10260;SDS011;5175;42.606;23.388;2023-04-03T00:43:10;2.63;;;2.40;;
10260;SDS011;5175;42.606;23.388;2023-04-03T00:45:40;2.63;;;2.10;;
10260;SDS011;5175;42.606;23.388;2023-04-03T00:48:09;2.83;;;2.27;;
10260;SDS011;5175;42.606;23.388;2023-04-03T00:50:40;2.20;;;2.00;;
10260;SDS011;5175;42.606;23.388;2023-04-03T00:53:11;19.33;;;16.37;;
10260;SDS011;5175;42.606;23.388;2023-04-03T00:55:44;4.27;;;2.93;;
10260;SDS011;5175;42.606;23.388;2023-04-03T00:58:13;2.57;;;2.10;;
10260;SDS011;5175;42.606;23.388;2023-04-03T01:00:44;2.37;;;2.00;;
10260;SDS011;5175;42.606;23.388;2023-04-03T01:03:15;2.47;;;1.80;;
10260;SDS011;5175;42.606;23.388;2023-04-03T01:05:42;3.07;;;2.00;;
10260;SDS011;5175;42.606;23.388;2023-04-03T01:08:09;2.30;;;2.10;;
10260;SDS011;5175;42.606;23.388;2023-04-03T01:10:36;2.47;;;2.10;;
10260;SDS011;5175;42.606;23.388;2023-04-03T01:13:07;2.47;;;2.27;;
10260;SDS011;5175;42.606;23.388;2023-04-03T01:15:44;3.17;;;2.23;;
10260;SDS011;5175;42.606;23.388;2023-04-03T01:18:11;3.77;;;2.83;;
10260;SDS011;5175;42.606;23.388;2023-04-03T01:23:46;2.27;;;2.07;;
10260;SDS011;5175;42.606;23.388;2023-04-03T01:26:22;2.33;;;2.13;;
10260;SDS011;5175;42.606;23.388;2023-04-03T01:28:50;2.43;;;2.23;;
10260;SDS011;5175;42.606;23.388;2023-04-03T01:31:20;4.47;;;2.70;;
10260;SDS011;5175;42.606;23.388;2023-04-03T01:33:52;2.73;;;2.50;;
10260;SDS011;5175;42.606;23.388;2023-04-03T01:36:20;3.33;;;2.30;;
10260;SDS011;5175;42.606;23.388;2023-04-03T01:38:49;4.47;;;2.43;;
10260;SDS011;5175;42.606;23.388;2023-04-03T01:41:16;2.60;;;2.20;;
10260;SDS011;5175;42.606;23.388;2023-04-03T01:43:43;2.40;;;2.20;;
10260;SDS011;5175;42.606;23.388;2023-04-03T01:46:10;3.17;;;2.40;;
10260;SDS011;5175;42.606;23.388;2023-04-03T01:48:36;2.70;;;2.40;;
10260;SDS011;5175;42.606;23.388;2023-04-03T01:51:05;3.00;;;2.10;;
10260;SDS011;5175;42.606;23.388;2023-04-03T01:53:32;2.97;;;2.43;;
10260;SDS011;5175;42.606;23.388;2023-04-03T01:55:58;6.43;;;3.60;;
10260;SDS011;5175;42.606;23.388;2023-04-03T01:58:25;3.53;;;2.57;;
10260;SDS011;5175;42.606;23.388;2023-04-03T02:00:52;3.43;;;2.73;;
10260;SDS011;5175;42.606;23.388;2023-04-03T02:03:19;2.20;;;2.00;;
10260;SDS011;5175;42.606;23.388;2023-04-03T02:05:46;3.50;;;3.13;;
10260;SDS011;5175;42.606;23.388;2023-04-03T02:08:14;5.50;;;4.27;;
10260;SDS011;5175;42.606;23.388;2023-04-03T02:10:43;4.20;;;3.80;;
10260;SDS011;5175;42.606;23.388;2023-04-03T02:13:10;5.77;;;5.03;;
10260;SDS011;5175;42.606;23.388;2023-04-03T02:15:37;10.10;;;7.07;;
10260;SDS011;5175;42.606;23.388;2023-04-03T02:18:04;10.77;;;7.10;;
10260;SDS011;5175;42.606;23.388;2023-04-03T02:20:32;5.70;;;4.67;;
10260;SDS011;5175;42.606;23.388;2023-04-03T02:22:59;4.50;;;3.37;;
10260;SDS011;5175;42.606;23.388;2023-04-03T02:25:27;4.30;;;2.80;;
10260;SDS011;5175;42.606;23.388;2023-04-03T02:27:54;3.73;;;2.90;;
10260;SDS011;5175;42.606;23.388;2023-04-03T02:30:21;4.30;;;3.23;;
10260;SDS011;5175;42.606;23.388;2023-04-03T02:32:48;3.80;;;3.10;;
10260;SDS011;5175;42.606;23.388;2023-04-03T02:35:15;3.53;;;2.87;;
10260;SDS011;5175;42.606;23.388;2023-04-03T02:37:42;3.70;;;2.77;;
10260;SDS011;5175;42.606;23.388;2023-04-03T02:40:09;3.03;;;2.67;;
10260;SDS011;5175;42.606;23.388;2023-04-03T02:42:37;3.53;;;3.10;;
10260;SDS011;5175;42.606;23.388;2023-04-03T02:45:05;3.30;;;2.73;;
10260;SDS011;5175;42.606;23.388;2023-04-03T02:47:32;3.03;;;2.70;;
10260;SDS011;5175;42.606;23.388;2023-04-03T02:49:59;2.80;;;2.47;;
10260;SDS011;5175;42.606;23.388;2023-04-03T02:52:26;3.17;;;2.87;;
10260;SDS011;5175;42.606;23.388;2023-04-03T02:54:53;4.03;;;2.93;;
10260;SDS011;5175;42.606;23.388;2023-04-03T02:57:19;6.37;;;4.40;;
10260;SDS011;5175;42.606;23.388;2023-04-03T02:59:47;3.50;;;2.37;;
10260;SDS011;5175;42.606;23.388;2023-04-03T03:02:14;2.80;;;2.60;;
10260;SDS011;5175;42.606;23.388;2023-04-03T03:04:41;3.13;;;2.77;;
10260;SDS011;5175;42.606;23.388;2023-04-03T03:07:08;2.60;;;2.40;;
10260;SDS011;5175;42.606;23.388;2023-04-03T03:09:35;3.00;;;2.40;;
10260;SDS011;5175;42.606;23.388;2023-04-03T03:12:02;3.77;;;3.20;;
10260;SDS011;5175;42.606;23.388;2023-04-03T03:14:29;4.40;;;3.40;;
10260;SDS011;5175;42.606;23.388;2023-04-03T03:16:57;3.67;;;3.07;;
10260;SDS011;5175;42.606;23.388;2023-04-03T03:19:24;3.20;;;2.80;;
10260;SDS011;5175;42.606;23.388;2023-04-03T03:21:51;2.47;;;2.27;;
10260;SDS011;5175;42.606;23.388;2023-04-03T03:24:18;3.07;;;2.40;;
10260;SDS011;5175;42.606;23.388;2023-04-03T03:26:44;3.07;;;2.47;;
10260;SDS011;5175;42.606;23.388;2023-04-03T03:29:11;2.53;;;2.33;;
10260;SDS011;5175;42.606;23.388;2023-04-03T03:31:38;2.67;;;2.37;;
10260;SDS011;5175;42.606;23.388;2023-04-03T03:34:06;2.83;;;2.30;;
10260;SDS011;5175;42.606;23.388;2023-04-03T03:36:33;2.50;;;2.30;;
10260;SDS011;5175;42.606;23.388;2023-04-03T03:39:00;3.40;;;2.30;;
10260;SDS011;5175;42.606;23.388;2023-04-03T03:41:27;2.97;;;2.67;;
10260;SDS011;5175;42.606;23.388;2023-04-03T03:43:53;4.80;;;2.87;;
10260;SDS011;5175;42.606;23.388;2023-04-03T03:46:20;3.07;;;2.77;;
10260;SDS011;5175;42.606;23.388;2023-04-03T03:48:47;5.43;;;3.20;;
10260;SDS011;5175;42.606;23.388;2023-04-03T03:51:15;4.67;;;2.90;;
10260;SDS011;5175;42.606;23.388;2023-04-03T03:53:42;4.37;;;3.30;;
10260;SDS011;5175;42.606;23.388;2023-04-03T03:56:09;3.93;;;3.30;;
10260;SDS011;5175;42.606;23.388;2023-04-03T03:58:36;3.43;;;2.97;;
10260;SDS011;5175;42.606;23.388;2023-04-03T04:01:03;6.23;;;4.50;;
10260;SDS011;5175;42.606;23.388;2023-04-03T04:03:31;4.03;;;3.00;;
10260;SDS011;5175;42.606;23.388;2023-04-03T04:05:58;2.73;;;2.50;;
10260;SDS011;5175;42.606;23.388;2023-04-03T04:08:27;2.93;;;2.60;;
10260;SDS011;5175;42.606;23.388;2023-04-03T04:10:53;2.83;;;2.63;;
10260;SDS011;5175;42.606;23.388;2023-04-03T04:13:20;3.30;;;2.80;;
10260;SDS011;5175;42.606;23.388;2023-04-03T04:15:47;3.93;;;2.90;;
10260;SDS011;5175;42.606;23.388;2023-04-03T04:18:14;4.80;;;4.30;;
10260;SDS011;5175;42.606;23.388;2023-04-03T04:20:41;4.50;;;4.10;;
10260;SDS011;5175;42.606;23.388;2023-04-03T04:23:08;5.13;;;3.30;;
10260;SDS011;5175;42.606;23.388;2023-04-03T04:25:36;4.80;;;3.13;;
10260;SDS011;5175;42.606;23.388;2023-04-03T04:28:03;3.97;;;3.00;;
10260;SDS011;5175;42.606;23.388;2023-04-03T04:30:30;4.37;;;2.80;;
10260;SDS011;5175;42.606;23.388;2023-04-03T04:32:57;4.40;;;3.00;;
10260;SDS011;5175;42.606;23.388;2023-04-03T04:35:23;2.63;;;2.43;;
10260;SDS011;5175;42.606;23.388;2023-04-03T04:37:50;3.50;;;2.40;;
10260;SDS011;5175;42.606;23.388;2023-04-03T04:40:17;3.57;;;2.47;;
10260;SDS011;5175;42.606;23.388;2023-04-03T04:42:45;4.67;;;3.07;;
10260;SDS011;5175;42.606;23.388;2023-04-03T04:45:12;4.80;;;3.83;;
10260;SDS011;5175;42.606;23.388;2023-04-03T04:47:40;3.93;;;3.47;;
10260;SDS011;5175;42.606;23.388;2023-04-03T04:50:07;3.10;;;2.63;;
10260;SDS011;5175;42.606;23.388;2023-04-03T04:52:34;2.60;;;2.40;;
10260;SDS011;5175;42.606;23.388;2023-04-03T04:55:01;3.07;;;2.23;;
10260;SDS011;5175;42.606;23.388;2023-04-03T04:57:28;3.70;;;3.07;;
10260;SDS011;5175;42.606;23.388;2023-04-03T04:59:56;3.53;;;2.90;;
10260;SDS011;5175;42.606;23.388;2023-04-03T05:02:23;4.03;;;3.30;;
10260;SDS011;5175;42.606;23.388;2023-04-03T05:04:50;6.47;;;3.70;;
10260;SDS011;5175;42.606;23.388;2023-04-03T05:07:17;15.20;;;4.10;;
10260;SDS011;5175;42.606;23.388;2023-04-03T05:09:44;5.03;;;3.50;;
10260;SDS011;5175;42.606;23.388;2023-04-03T05:12:11;3.73;;;2.97;;
10260;SDS011;5175;42.606;23.388;2023-04-03T05:14:37;3.73;;;3.33;;
10260;SDS011;5175;42.606;23.388;2023-04-03T05:17:06;3.43;;;3.13;;
10260;SDS011;5175;42.606;23.388;2023-04-03T05:19:33;3.73;;;3.33;;
10260;SDS011;5175;42.606;23.388;2023-04-03T05:21:59;4.03;;;3.20;;
10260;SDS011;5175;42.606;23.388;2023-04-03T05:24:26;3.30;;;2.90;;
10260;SDS011;5175;42.606;23.388;2023-04-03T05:26:53;3.97;;;3.07;;
10260;SDS011;5175;42.606;23.388;2023-04-03T05:29:20;3.90;;;2.80;;
10260;SDS011;5175;42.606;23.388;2023-04-03T05:31:48;3.80;;;2.90;;
10260;SDS011;5175;42.606;23.388;2023-04-03T05:34:16;3.40;;;2.80;;
10260;SDS011;5175;42.606;23.388;2023-04-03T05:36:43;4.13;;;2.97;;
10260;SDS011;5175;42.606;23.388;2023-04-03T05:39:10;3.27;;;2.73;;
10260;SDS011;5175;42.606;23.388;2023-04-03T05:41:37;4.23;;;3.60;;
10260;SDS011;5175;42.606;23.388;2023-04-03T05:44:04;6.40;;;3.67;;
10260;SDS011;5175;42.606;23.388;2023-04-03T05:46:31;7.07;;;4.60;;
10260;SDS011;5175;42.606;23.388;2023-04-03T05:48:58;6.57;;;5.87;;
10260;SDS011;5175;42.606;23.388;2023-04-03T05:51:30;9.10;;;7.70;;
10260;SDS011;5175;42.606;23.388;2023-04-03T05:54:01;6.57;;;5.50;;
10260;SDS011;5175;42.606;23.388;2023-04-03T05:56:33;5.93;;;5.33;;
10260;SDS011;5175;42.606;23.388;2023-04-03T05:59:02;6.67;;;5.90;;
10260;SDS011;5175;42.606;23.388;2023-04-03T06:01:29;6.20;;;5.00;;
10260;SDS011;5175;42.606;23.388;2023-04-03T06:03:56;6.00;;;5.07;;
10260;SDS011;5175;42.606;23.388;2023-04-03T06:06:23;5.73;;;4.10;;
10260;SDS011;5175;42.606;23.388;2023-04-03T06:08:51;5.37;;;4.27;;
10260;SDS011;5175;42.606;23.388;2023-04-03T06:11:20;6.20;;;4.20;;
10260;SDS011;5175;42.606;23.388;2023-04-03T06:13:47;4.00;;;3.60;;
10260;SDS011;5175;42.606;23.388;2023-04-03T06:16:14;3.97;;;3.57;;
10260;SDS011;5175;42.606;23.388;2023-04-03T06:18:43;4.20;;;3.80;;
10260;SDS011;5175;42.606;23.388;2023-04-03T06:21:10;6.03;;;5.00;;
10260;SDS011;5175;42.606;23.388;2023-04-03T06:23:37;6.13;;;5.43;;
10260;SDS011;5175;42.606;23.388;2023-04-03T06:26:05;5.23;;;4.50;;
10260;SDS011;5175;42.606;23.388;2023-04-03T06:28:32;5.10;;;4.40;;
10260;SDS011;5175;42.606;23.388;2023-04-03T06:30:58;6.90;;;4.47;;
10260;SDS011;5175;42.606;23.388;2023-04-03T06:33:25;4.33;;;3.73;;
10260;SDS011;5175;42.606;23.388;2023-04-03T06:35:55;4.00;;;3.60;;
10260;SDS011;5175;42.606;23.388;2023-04-03T06:38:23;5.53;;;3.70;;
10260;SDS011;5175;42.606;23.388;2023-04-03T06:40:50;3.70;;;3.30;;
10260;SDS011;5175;42.606;23.388;2023-04-03T06:43:20;4.87;;;3.30;;
10260;SDS011;5175;42.606;23.388;2023-04-03T06:45:46;5.27;;;3.73;;
10260;SDS011;5175;42.606;23.388;2023-04-03T06:48:13;4.13;;;3.43;;
10260;SDS011;5175;42.606;23.388;2023-04-03T06:50:40;3.93;;;3.30;;
10260;SDS011;5175;42.606;23.388;2023-04-03T06:53:07;5.63;;;3.40;;
10260;SDS011;5175;42.606;23.388;2023-04-03T06:55:35;5.13;;;3.73;;
10260;SDS011;5175;42.606;23.388;2023-04-03T06:58:02;5.20;;;3.63;;
10260;SDS011;5175;42.606;23.388;2023-04-03T07:00:31;4.23;;;3.40;;
10260;SDS011;5175;42.606;23.388;2023-04-03T07:02:58;5.50;;;4.00;;
10260;SDS011;5175;42.606;23.388;2023-04-03T07:05:25;4.53;;;3.87;;
10260;SDS011;5175;42.606;23.388;2023-04-03T07:07:52;4.50;;;3.97;;
10260;SDS011;5175;42.606;23.388;2023-04-03T07:10:20;5.40;;;3.87;;
10260;SDS011;5175;42.606;23.388;2023-04-03T07:12:46;5.53;;;4.20;;
10260;SDS011;5175;42.606;23.388;2023-04-03T07:15:13;4.63;;;4.20;;
10260;SDS011;5175;42.606;23.388;2023-04-03T07:17:41;4.77;;;3.90;;
10260;SDS011;5175;42.606;23.388;2023-04-03T07:20:09;9.17;;;5.57;;
10260;SDS011;5175;42.606;23.388;2023-04-03T07:22:36;4.90;;;4.03;;
10260;SDS011;5175;42.606;23.388;2023-04-03T07:25:03;5.90;;;4.47;;
10260;SDS011;5175;42.606;23.388;2023-04-03T07:27:32;5.10;;;4.13;;
10260;SDS011;5175;42.606;23.388;2023-04-03T07:29:59;5.70;;;4.23;;
10260;SDS011;5175;42.606;23.388;2023-04-03T07:32:26;7.27;;;4.23;;
10260;SDS011;5175;42.606;23.388;2023-04-03T07:34:54;6.57;;;4.13;;
10260;SDS011;5175;42.606;23.388;2023-04-03T07:37:21;4.83;;;3.90;;
10260;SDS011;5175;42.606;23.388;2023-04-03T07:39:48;4.93;;;3.90;;
10260;SDS011;5175;42.606;23.388;2023-04-03T07:42:14;4.60;;;3.30;;
10260;SDS011;5175;42.606;23.388;2023-04-03T07:44:41;4.20;;;3.40;;
10260;SDS011;5175;42.606;23.388;2023-04-03T07:47:08;4.27;;;3.57;;
10260;SDS011;5175;42.606;23.388;2023-04-03T07:49:35;5.47;;;4.33;;
10260;SDS011;5175;42.606;23.388;2023-04-03T07:52:06;6.47;;;4.67;;
10260;SDS011;5175;42.606;23.388;2023-04-03T07:54:34;6.90;;;4.23;;
10260;SDS011;5175;42.606;23.388;2023-04-03T07:57:01;6.70;;;5.43;;
10260;SDS011;5175;42.606;23.388;2023-04-03T07:59:28;8.50;;;5.87;;
10260;SDS011;5175;42.606;23.388;2023-04-03T08:01:55;7.80;;;5.47;;
10260;SDS011;5175;42.606;23.388;2023-04-03T08:04:22;5.90;;;4.97;;
10260;SDS011;5175;42.606;23.388;2023-04-03T08:06:48;7.77;;;5.70;;
10260;SDS011;5175;42.606;23.388;2023-04-03T08:09:17;10.70;;;7.00;;
10260;SDS011;5175;42.606;23.388;2023-04-03T08:11:45;11.07;;;7.40;;
10260;SDS011;5175;42.606;23.388;2023-04-03T08:14:12;10.40;;;7.93;;
10260;SDS011;5175;42.606;23.388;2023-04-03T08:16:43;11.17;;;8.67;;
10260;SDS011;5175;42.606;23.388;2023-04-03T08:19:11;10.50;;;9.07;;
10260;SDS011;5175;42.606;23.388;2023-04-03T08:21:39;10.77;;;9.00;;
10260;SDS011;5175;42.606;23.388;2023-04-03T08:24:06;11.73;;;8.17;;
10260;SDS011;5175;42.606;23.388;2023-04-03T08:26:35;12.27;;;8.83;;
10260;SDS011;5175;42.606;23.388;2023-04-03T08:29:02;12.73;;;8.73;;
10260;SDS011;5175;42.606;23.388;2023-04-03T08:31:29;10.57;;;8.83;;
10260;SDS011;5175;42.606;23.388;2023-04-03T08:33:56;12.60;;;9.00;;
10260;SDS011;5175;42.606;23.388;2023-04-03T08:36:24;13.67;;;9.10;;
10260;SDS011;5175;42.606;23.388;2023-04-03T08:38:53;14.10;;;8.57;;
10260;SDS011;5175;42.606;23.388;2023-04-03T08:41:25;10.63;;;8.67;;
10260;SDS011;5175;42.606;23.388;2023-04-03T08:44:00;10.57;;;8.53;;
10260;SDS011;5175;42.606;23.388;2023-04-03T08:46:37;10.10;;;8.53;;
10260;SDS011;5175;42.606;23.388;2023-04-03T08:49:16;10.40;;;8.20;;
10260;SDS011;5175;42.606;23.388;2023-04-03T08:51:50;10.87;;;8.60;;
10260;SDS011;5175;42.606;23.388;2023-04-03T08:54:28;9.93;;;8.23;;
10260;SDS011;5175;42.606;23.388;2023-04-03T08:56:59;11.53;;;8.03;;
10260;SDS011;5175;42.606;23.388;2023-04-03T08:59:32;14.73;;;8.97;;
10260;SDS011;5175;42.606;23.388;2023-04-03T09:02:03;16.73;;;9.20;;
10260;SDS011;5175;42.606;23.388;2023-04-03T09:04:42;10.93;;;8.13;;
10260;SDS011;5175;42.606;23.388;2023-04-03T09:07:11;10.47;;;7.73;;
10260;SDS011;5175;42.606;23.388;2023-04-03T09:09:44;10.83;;;7.67;;
10260;SDS011;5175;42.606;23.388;2023-04-03T09:12:17;11.00;;;7.70;;
10260;SDS011;5175;42.606;23.388;2023-04-03T09:14:49;14.67;;;7.70;;
10260;SDS011;5175;42.606;23.388;2023-04-03T09:17:29;8.70;;;7.07;;
10260;SDS011;5175;42.606;23.388;2023-04-03T09:20:06;8.73;;;6.47;;
10260;SDS011;5175;42.606;23.388;2023-04-03T09:22:41;7.00;;;5.67;;
10260;SDS011;5175;42.606;23.388;2023-04-03T09:25:11;11.00;;;5.47;;
10260;SDS011;5175;42.606;23.388;2023-04-03T09:27:41;4.07;;;3.13;;
10260;SDS011;5175;42.606;23.388;2023-04-03T09:30:13;4.33;;;3.00;;
10260;SDS011;5175;42.606;23.388;2023-04-03T09:32:41;3.53;;;2.60;;
10260;SDS011;5175;42.606;23.388;2023-04-03T09:35:16;3.40;;;3.10;;
10260;SDS011;5175;42.606;23.388;2023-04-03T09:37:47;6.00;;;3.67;;
10260;SDS011;5175;42.606;23.388;2023-04-03T09:43:22;4.53;;;3.50;;
10260;SDS011;5175;42.606;23.388;2023-04-03T09:45:52;2.40;;;2.20;;
10260;SDS011;5175;42.606;23.388;2023-04-03T09:48:21;2.47;;;2.27;;
10260;SDS011;5175;42.606;23.388;2023-04-03T09:50:53;3.30;;;2.50;;
10260;SDS011;5175;42.606;23.388;2023-04-03T09:53:34;4.60;;;2.57;;
10260;SDS011;5175;42.606;23.388;2023-04-03T09:56:03;2.23;;;2.03;;
10260;SDS011;5175;42.606;23.388;2023-04-03T09:58:46;3.53;;;2.13;;
10260;SDS011;5175;42.606;23.388;2023-04-03T10:01:23;3.43;;;2.00;;
10260;SDS011;5175;42.606;23.388;2023-04-03T10:04:03;2.13;;;1.90;;
10260;SDS011;5175;42.606;23.388;2023-04-03T10:06:35;2.20;;;2.00;;
10260;SDS011;5175;42.606;23.388;2023-04-03T10:09:10;3.47;;;2.20;;
10260;SDS011;5175;42.606;23.388;2023-04-03T10:11:56;5.13;;;2.80;;
10260;SDS011;5175;42.606;23.388;2023-04-03T10:14:29;3.77;;;2.80;;
10260;SDS011;5175;42.606;23.388;2023-04-03T10:16:59;3.50;;;2.53;;
10260;SDS011;5175;42.606;23.388;2023-04-03T10:19:38;3.30;;;3.00;;
10260;SDS011;5175;42.606;23.388;2023-04-03T10:22:12;3.57;;;3.27;;
10260;SDS011;5175;42.606;23.388;2023-04-03T10:24:47;4.77;;;3.30;;
10260;SDS011;5175;42.606;23.388;2023-04-03T10:27:24;4.03;;;3.33;;
10260;SDS011;5175;42.606;23.388;2023-04-03T10:30:01;4.43;;;3.40;;
10260;SDS011;5175;42.606;23.388;2023-04-03T10:32:45;6.40;;;3.60;;
10260;SDS011;5175;42.606;23.388;2023-04-03T10:35:28;4.13;;;3.13;;
10260;SDS011;5175;42.606;23.388;2023-04-03T10:38:07;6.00;;;3.63;;
10260;SDS011;5175;42.606;23.388;2023-04-03T10:40:44;9.17;;;4.00;;
10260;SDS011;5175;42.606;23.388;2023-04-03T10:43:20;5.33;;;3.90;;
10260;SDS011;5175;42.606;23.388;2023-04-03T10:45:55;3.87;;;3.40;;
10260;SDS011;5175;42.606;23.388;2023-04-03T10:48:40;3.60;;;3.10;;
10260;SDS011;5175;42.606;23.388;2023-04-03T10:51:15;6.13;;;3.00;;
10260;SDS011;5175;42.606;23.388;2023-04-03T10:53:51;3.10;;;2.70;;
10260;SDS011;5175;42.606;23.388;2023-04-03T10:56:25;4.37;;;3.10;;
10260;SDS011;5175;42.606;23.388;2023-04-03T10:58:58;3.47;;;3.17;;
10260;SDS011;5175;42.606;23.388;2023-04-03T11:01:34;3.70;;;3.07;;
10260;SDS011;5175;42.606;23.388;2023-04-03T11:04:05;8.80;;;3.23;;
10260;SDS011;5175;42.606;23.388;2023-04-03T11:06:34;6.83;;;3.53;;
10260;SDS011;5175;42.606;23.388;2023-04-03T11:09:05;6.63;;;3.50;;
10260;SDS011;5175;42.606;23.388;2023-04-03T11:11:40;5.80;;;3.90;;
10260;SDS011;5175;42.606;23.388;2023-04-03T11:14:09;4.57;;;3.60;;
10260;SDS011;5175;42.606;23.388;2023-04-03T11:16:42;3.87;;;3.53;;
10260;SDS011;5175;42.606;23.388;2023-04-03T11:19:15;3.70;;;3.13;;
10260;SDS011;5175;42.606;23.388;2023-04-03T11:21:47;4.97;;;2.97;;
10260;SDS011;5175;42.606;23.388;2023-04-03T11:24:22;6.33;;;3.13;;
10260;SDS011;5175;42.606;23.388;2023-04-03T11:26:50;4.33;;;3.47;;
10260;SDS011;5175;42.606;23.388;2023-04-03T11:29:20;3.20;;;2.70;;
10260;SDS011;5175;42.606;23.388;2023-04-03T11:34:47;3.30;;;3.00;;
10260;SDS011;5175;42.606;23.388;2023-04-03T11:37:27;4.10;;;3.70;;
10260;SDS011;5175;42.606;23.388;2023-04-03T11:40:01;3.50;;;3.20;;
10260;SDS011;5175;42.606;23.388;2023-04-03T11:42:33;3.50;;;3.20;;
10260;SDS011;5175;42.606;23.388;2023-04-03T11:45:16;5.53;;;3.53;;
10260;SDS011;5175;42.606;23.388;2023-04-03T11:47:50;4.30;;;3.70;;
10260;SDS011;5175;42.606;23.388;2023-04-03T11:50:38;4.53;;;4.13;;
10260;SDS011;5175;42.606;23.388;2023-04-03T11:53:30;4.63;;;4.23;;
10260;SDS011;5175;42.606;23.388;2023-04-03T11:56:04;4.00;;;3.63;;
10260;SDS011;5175;42.606;23.388;2023-04-03T12:01:49;4.43;;;3.60;;
10260;SDS011;5175;42.606;23.388;2023-04-03T12:04:17;6.37;;;5.77;;
10260;SDS011;5175;42.606;23.388;2023-04-03T12:06:51;4.07;;;3.50;;
10260;SDS011;5175;42.606;23.388;2023-04-03T12:09:29;3.63;;;3.30;;
10260;SDS011;5175;42.606;23.388;2023-04-03T12:12:00;4.33;;;3.93;;
10260;SDS011;5175;42.606;23.388;2023-04-03T12:14:48;5.17;;;3.77;;
10260;SDS011;5175;42.606;23.388;2023-04-03T12:17:19;3.20;;;2.90;;
10260;SDS011;5175;42.606;23.388;2023-04-03T12:19:51;2.43;;;2.23;;
10260;SDS011;5175;42.606;23.388;2023-04-03T12:22:20;2.80;;;2.57;;
10260;SDS011;5175;42.606;23.388;2023-04-03T12:24:48;2.53;;;2.30;;
10260;SDS011;5175;42.606;23.388;2023-04-03T12:30:24;3.23;;;2.93;;
10260;SDS011;5175;42.606;23.388;2023-04-03T12:33:01;2.70;;;2.50;;
10260;SDS011;5175;42.606;23.388;2023-04-03T12:35:49;3.70;;;2.60;;
10260;SDS011;5175;42.606;23.388;2023-04-03T12:38:39;3.40;;;2.80;;
10260;SDS011;5175;42.606;23.388;2023-04-03T12:41:26;2.70;;;2.50;;
10260;SDS011;5175;42.606;23.388;2023-04-03T12:44:08;2.80;;;2.60;;
10260;SDS011;5175;42.606;23.388;2023-04-03T12:46:52;3.17;;;2.87;;
10260;SDS011;5175;42.606;23.388;2023-04-03T12:49:31;3.33;;;3.03;;
10260;SDS011;5175;42.606;23.388;2023-04-03T12:52:02;3.43;;;3.13;;
10260;SDS011;5175;42.606;23.388;2023-04-03T12:54:35;3.00;;;2.80;;
10260;SDS011;5175;42.606;23.388;2023-04-03T12:57:11;4.27;;;3.87;;
10260;SDS011;5175;42.606;23.388;2023-04-03T12:59:39;3.90;;;3.60;;
10260;SDS011;5175;42.606;23.388;2023-04-03T13:02:10;4.30;;;3.90;;
10260;SDS011;5175;42.606;23.388;2023-04-03T13:04:53;4.40;;;3.63;;
10260;SDS011;5175;42.606;23.388;2023-04-03T13:07:24;4.40;;;4.00;;
10260;SDS011;5175;42.606;23.388;2023-04-03T13:09:58;3.93;;;3.33;;
10260;SDS011;5175;42.606;23.388;2023-04-03T13:12:26;4.90;;;4.40;;
10260;SDS011;5175;42.606;23.388;2023-04-03T13:14:54;7.47;;;6.77;;
10260;SDS011;5175;42.606;23.388;2023-04-03T13:17:23;8.27;;;7.47;;
10260;SDS011;5175;42.606;23.388;2023-04-03T13:19:51;8.70;;;7.83;;
10260;SDS011;5175;42.606;23.388;2023-04-03T13:22:22;5.90;;;5.00;;
10260;SDS011;5175;42.606;23.388;2023-04-03T13:24:54;4.70;;;4.30;;
10260;SDS011;5175;42.606;23.388;2023-04-03T13:27:25;4.47;;;4.07;;
10260;SDS011;5175;42.606;23.388;2023-04-03T13:29:54;7.83;;;7.03;;
10260;SDS011;5175;42.606;23.388;2023-04-03T13:32:25;7.70;;;6.97;;
10260;SDS011;5175;42.606;23.388;2023-04-03T13:34:55;5.33;;;4.83;;
10260;SDS011;5175;42.606;23.388;2023-04-03T13:37:23;5.20;;;4.70;;
10260;SDS011;5175;42.606;23.388;2023-04-03T13:39:59;7.93;;;6.67;;
10260;SDS011;5175;42.606;23.388;2023-04-03T13:42:32;9.27;;;8.10;;
10260;SDS011;5175;42.606;23.388;2023-04-03T13:48:06;3.97;;;3.53;;
10260;SDS011;5175;42.606;23.388;2023-04-03T13:50:50;4.00;;;3.60;;
10260;SDS011;5175;42.606;23.388;2023-04-03T13:53:20;4.07;;;3.50;;
10260;SDS011;5175;42.606;23.388;2023-04-03T13:55:52;5.23;;;3.30;;
10260;SDS011;5175;42.606;23.388;2023-04-03T13:58:27;3.63;;;3.33;;
10260;SDS011;5175;42.606;23.388;2023-04-03T14:00:56;4.47;;;4.07;;
10260;SDS011;5175;42.606;23.388;2023-04-03T14:03:29;4.00;;;3.70;;
10260;SDS011;5175;42.606;23.388;2023-04-03T14:05:57;3.63;;;3.33;;
10260;SDS011;5175;42.606;23.388;2023-04-03T14:08:25;3.60;;;3.30;;
10260;SDS011;5175;42.606;23.388;2023-04-03T14:10:52;4.37;;;3.97;;
10260;SDS011;5175;42.606;23.388;2023-04-03T14:13:20;4.93;;;4.50;;
10260;SDS011;5175;42.606;23.388;2023-04-03T14:15:49;4.40;;;4.00;;
10260;SDS011;5175;42.606;23.388;2023-04-03T14:18:17;4.40;;;4.00;;
10260;SDS011;5175;42.606;23.388;2023-04-03T14:20:45;5.10;;;4.63;;
10260;SDS011;5175;42.606;23.388;2023-04-03T14:23:13;4.70;;;4.30;;
10260;SDS011;5175;42.606;23.388;2023-04-03T14:25:40;4.80;;;4.40;;
10260;SDS011;5175;42.606;23.388;2023-04-03T14:28:12;4.87;;;4.47;;
10260;SDS011;5175;42.606;23.388;2023-04-03T14:30:42;5.40;;;4.90;;
10260;SDS011;5175;42.606;23.388;2023-04-03T14:33:11;19.10;;;13.10;;
10260;SDS011;5175;42.606;23.388;2023-04-03T14:35:40;6.87;;;5.70;;
10260;SDS011;5175;42.606;23.388;2023-04-03T14:38:12;4.63;;;4.23;;
10260;SDS011;5175;42.606;23.388;2023-04-03T14:40:49;4.43;;;3.90;;
10260;SDS011;5175;42.606;23.388;2023-04-03T14:43:16;3.70;;;3.40;;
10260;SDS011;5175;42.606;23.388;2023-04-03T14:45:45;3.90;;;3.47;;
10260;SDS011;5175;42.606;23.388;2023-04-03T14:48:15;4.13;;;3.57;;
10260;SDS011;5175;42.606;23.388;2023-04-03T14:50:45;3.30;;;3.00;;
10260;SDS011;5175;42.606;23.388;2023-04-03T14:53:13;4.30;;;3.90;;
10260;SDS011;5175;42.606;23.388;2023-04-03T14:55:42;3.50;;;3.20;;
10260;SDS011;5175;42.606;23.388;2023-04-03T14:58:12;3.33;;;3.03;;
10260;SDS011;5175;42.606;23.388;2023-04-03T15:00:40;3.20;;;2.90;;
10260;SDS011;5175;42.606;23.388;2023-04-03T15:03:09;3.50;;;3.00;;
10260;SDS011;5175;42.606;23.388;2023-04-03T15:05:41;3.57;;;3.07;;
10260;SDS011;5175;42.606;23.388;2023-04-03T15:08:17;3.13;;;2.93;;
10260;SDS011;5175;42.606;23.388;2023-04-03T15:10:46;3.43;;;3.13;;
10260;SDS011;5175;42.606;23.388;2023-04-03T15:13:14;3.90;;;3.30;;
10260;SDS011;5175;42.606;23.388;2023-04-03T15:15:40;3.97;;;3.67;;
10260;SDS011;5175;42.606;23.388;2023-04-03T15:18:10;3.77;;;3.47;;
10260;SDS011;5175;42.606;23.388;2023-04-03T15:20:43;4.13;;;3.73;;